Kenney, Illinois
Current Conditions -  °F | °C
As of 10:15 AM on Monday 22 Dec 2014 (Local Time) from KAAA Reporting Station
Moderate Rain Moderate Rain  
Wind Chill: 29°   Ceiling: 600
Heat Index: 37°   Visibility: 2mi
Dew Point: 36°   Wind: 12mph
Humidity: 95%   Direction: 120°ESE
Pressure: 29.78"   Gusts: 18mph
Location:  40.1°N, 89.09°W
Report Text: KAAA 221615Z AUTO 12010G16KT 2SM RA OVC006 03/02 A2978 RMK AO2 P0002 T00270020
Loading
Personal Weather Stations






























Interactive Weather Map New forecast layout! Learn more

10-Day Weather Forecast

Advertisements
Track Severe Weather on mobile